createdAt,value
2022-09-25T00:31:57.824Z,13.73
2022-09-25T00:34:27.152Z,13.72
2022-09-25T00:37:20.548Z,13.72
2022-09-25T00:39:52.226Z,13.72
2022-09-25T00:42:27.136Z,13.76
2022-09-25T00:45:13.357Z,13.74
2022-09-25T00:51:02.923Z,13.74
2022-09-25T00:53:36.775Z,13.72
2022-09-25T01:05:26.471Z,13.74
2022-09-25T01:07:59.136Z,13.72
2022-09-25T01:10:33.392Z,13.77
2022-09-25T01:13:01.269Z,13.74
2022-09-25T01:15:43.167Z,13.72
2022-09-25T01:18:15.078Z,13.74
2022-09-25T01:21:05.716Z,13.74
2022-09-25T01:24:02.490Z,13.70
2022-09-25T01:26:43.286Z,13.72
2022-09-25T01:29:50.873Z,13.69
2022-09-25T01:32:50.797Z,13.70
2022-09-25T01:35:45.735Z,13.73
2022-09-25T01:38:47.598Z,13.69
2022-09-25T01:42:06.978Z,13.67
2022-09-25T01:44:45.560Z,13.69
2022-09-25T01:47:18.608Z,13.72
2022-09-25T01:50:26.606Z,13.60
2022-09-25T01:52:59.415Z,13.63
2022-09-25T02:02:10.501Z,13.66
2022-09-25T02:04:42.682Z,13.66
2022-09-25T02:07:16.664Z,13.63
2022-09-25T02:10:20.775Z,13.64
2022-09-25T02:12:52.116Z,13.66
2022-09-25T02:15:39.712Z,13.64
2022-09-25T02:18:31.498Z,13.63
2022-09-25T02:21:12.455Z,13.69
2022-09-25T02:23:57.944Z,13.69
2022-09-25T02:26:32.620Z,13.62
2022-09-25T02:29:31.570Z,13.64
2022-09-25T02:32:02.577Z,13.67
2022-09-25T02:34:32.577Z,13.69
2022-09-25T02:37:00.428Z,13.76
2022-09-25T02:40:02.355Z,13.73
2022-09-25T02:42:46.282Z,13.73
2022-09-25T02:46:10.335Z,13.66
2022-09-25T02:48:55.221Z,13.70
2022-09-25T02:51:45.420Z,13.74
2022-09-25T02:55:29.566Z,13.67
2022-09-25T02:58:09.043Z,13.73
2022-09-25T03:00:40.144Z,13.69
2022-09-25T03:03:12.294Z,13.73
2022-09-25T03:05:41.986Z,13.69
2022-09-25T03:11:29.016Z,13.64
2022-09-25T03:13:58.545Z,13.67
2022-09-25T03:16:39.533Z,13.67
2022-09-25T03:19:08.238Z,13.69
2022-09-25T03:21:36.262Z,13.66
2022-09-25T03:24:28.371Z,13.70
2022-09-25T03:26:56.292Z,13.66
2022-09-25T03:29:24.745Z,13.66
2022-09-25T03:31:52.415Z,13.76
2022-09-25T03:34:21.037Z,13.70
2022-09-25T03:37:19.608Z,13.66
2022-09-25T03:39:46.292Z,13.67
2022-09-25T03:42:26.311Z,13.64
2022-09-25T03:44:55.983Z,13.57
2022-09-25T03:50:20.446Z,13.10
2022-09-25T03:52:48.471Z,12.98
2022-09-25T03:55:16.358Z,13.00
2022-09-25T03:57:49.225Z,13.24
2022-09-25T04:00:17.802Z,13.22
2022-09-25T04:03:10.329Z,13.15
2022-09-25T04:05:39.286Z,12.81
2022-09-25T04:11:03.863Z,13.24
2022-09-25T04:13:41.703Z,13.40
2022-09-25T04:16:34.461Z,13.53
2022-09-25T04:19:02.249Z,13.53
2022-09-25T04:21:30.402Z,13.56
2022-09-25T04:24:16.977Z,13.57
2022-09-25T04:26:44.400Z,13.59
2022-09-25T04:29:15.654Z,13.59
2022-09-25T04:31:44.422Z,13.60
2022-09-25T04:34:43.353Z,13.56
2022-09-25T04:37:10.506Z,13.59
2022-09-25T04:39:43.420Z,13.57
2022-09-25T04:42:10.513Z,13.56
2022-09-25T04:44:38.165Z,13.62
2022-09-25T04:47:06.205Z,13.59
2022-09-25T04:49:39.500Z,13.56
2022-09-25T04:52:06.458Z,13.59
2022-09-25T04:54:34.194Z,13.60
2022-09-25T04:57:02.766Z,13.59
2022-09-25T04:59:30.312Z,13.60
2022-09-25T05:01:58.509Z,13.54
2022-09-25T05:04:26.328Z,13.63
2022-09-25T05:09:46.159Z,13.63
2022-09-25T05:12:18.483Z,13.63
2022-09-25T05:15:11.676Z,13.62
2022-09-25T05:17:42.061Z,13.66
2022-09-25T05:20:14.502Z,13.64
2022-09-25T05:22:42.190Z,13.63
2022-09-25T05:28:26.648Z,13.63
2022-09-25T05:30:54.807Z,13.63
2022-09-25T05:33:22.270Z,13.64
2022-09-25T05:38:46.555Z,13.63
2022-09-25T05:41:18.672Z,13.70
2022-09-25T05:43:47.876Z,13.64
2022-09-25T05:46:16.592Z,13.64
2022-09-25T05:48:44.489Z,13.72
2022-09-25T05:51:12.179Z,13.70
2022-09-25T05:53:41.190Z,13.69
2022-09-25T05:56:08.496Z,13.66
2022-09-25T05:58:36.443Z,13.76
2022-09-25T06:01:05.927Z,13.67
2022-09-25T06:03:34.585Z,13.73
2022-09-25T06:06:03.688Z,13.72
2022-09-25T06:08:33.369Z,13.76
2022-09-25T06:11:03.472Z,13.73
2022-09-25T06:13:35.010Z,13.72
2022-09-25T06:16:03.218Z,13.77
2022-09-25T06:18:30.207Z,13.76
2022-09-25T06:21:22.719Z,13.77
2022-09-25T06:23:50.245Z,13.73
2022-09-25T06:26:18.937Z,13.79
2022-09-25T06:28:46.261Z,13.80
2022-09-25T06:31:15.235Z,13.83
2022-09-25T06:33:43.832Z,13.84
2022-09-25T06:36:12.357Z,13.81
2022-09-25T06:38:42.064Z,13.84
2022-09-25T06:41:34.943Z,13.89
2022-09-25T06:44:28.730Z,13.87
2022-09-25T06:46:56.397Z,13.89
2022-09-25T06:49:24.451Z,13.89
2022-09-25T06:51:52.728Z,13.93
2022-09-25T06:54:20.243Z,13.94
2022-09-25T06:56:49.876Z,14.00
2022-09-25T06:59:18.308Z,13.97
2022-09-25T07:01:46.255Z,14.01
2022-09-25T08:05:39.934Z,14.28
2022-09-25T08:20:09.569Z,14.28
2022-09-25T09:24:30.073Z,14.19
2022-09-25T09:30:04.508Z,14.22
2022-09-25T09:32:45.695Z,14.21
2022-09-25T09:35:51.950Z,14.29
2022-09-25T09:38:44.257Z,14.30
2022-09-25T09:41:58.002Z,14.36
2022-09-25T09:45:11.658Z,14.39
2022-09-25T09:48:15.197Z,14.38
2022-09-25T09:51:30.938Z,14.48
2022-09-25T09:54:06.454Z,14.42
2022-09-25T09:56:44.442Z,14.42
2022-09-25T09:59:23.323Z,14.40
2022-09-25T10:02:13.190Z,14.33
2022-09-25T10:04:41.399Z,14.32
2022-09-25T10:07:12.692Z,14.42
2022-09-25T10:09:50.938Z,14.46
2022-09-25T10:12:39.137Z,14.43
2022-09-25T10:15:58.043Z,14.45
2022-09-25T10:18:35.738Z,14.39
2022-09-25T10:21:12.525Z,14.29
2022-09-25T10:23:46.896Z,14.26
2022-09-25T10:26:38.000Z,14.26
2022-09-25T10:29:27.341Z,14.22
2022-09-25T10:32:02.235Z,14.15
2022-09-25T10:34:31.898Z,14.15
2022-09-25T10:37:19.757Z,14.22
2022-09-25T10:40:02.252Z,14.17
2022-09-25T10:43:23.655Z,14.21
2022-09-25T10:46:14.758Z,14.33
2022-09-25T10:52:27.280Z,14.32
2022-09-25T10:55:14.731Z,14.28
2022-09-25T10:57:42.723Z,14.18
2022-09-25T11:08:06.773Z,14.18
2022-09-25T11:10:48.109Z,14.14
2022-09-25T11:13:27.974Z,14.18
2022-09-25T11:15:59.869Z,14.28
2022-09-25T11:18:45.532Z,14.18
2022-09-25T11:21:36.471Z,14.29
2022-09-25T11:27:53.398Z,14.35
2022-09-25T11:33:42.859Z,14.25
2022-09-25T11:36:24.943Z,14.25
2022-09-25T11:39:55.178Z,14.25
2022-09-25T11:42:36.178Z,14.25
2022-09-25T11:45:36.394Z,14.30
2022-09-25T11:48:12.920Z,14.36
2022-09-25T11:51:09.792Z,14.39
2022-09-25T11:53:44.308Z,14.45
2022-09-25T11:56:52.013Z,14.39
2022-09-25T12:00:07.742Z,14.28
2022-09-25T12:02:54.428Z,14.35
2022-09-25T12:05:49.249Z,14.33
2022-09-25T12:08:36.608Z,14.33
2022-09-25T12:11:22.433Z,14.29
2022-09-25T12:14:34.629Z,14.04
2022-09-25T12:17:20.994Z,14.12
2022-09-25T12:20:04.781Z,14.18
2022-09-25T12:22:52.118Z,14.25
2022-09-25T12:25:54.140Z,14.30
2022-09-25T12:28:48.379Z,14.22
2022-09-25T12:31:25.547Z,14.29
2022-09-25T12:34:20.640Z,14.25
2022-09-25T12:37:06.121Z,14.39
2022-09-25T12:39:37.313Z,14.28
2022-09-25T12:45:19.806Z,14.39
2022-09-25T12:47:51.360Z,14.28
2022-09-25T12:50:30.455Z,14.42
2022-09-25T12:53:23.311Z,14.52
2022-09-25T12:56:03.959Z,14.59
2022-09-25T13:02:21.385Z,14.62
2022-09-25T13:05:21.956Z,14.62
2022-09-25T13:08:29.556Z,14.62
2022-09-25T13:11:14.538Z,14.56
2022-09-25T13:16:45.300Z,14.80
2022-09-25T13:19:24.279Z,14.76
2022-09-25T13:21:59.591Z,14.84
2022-09-25T13:24:26.463Z,14.74
2022-09-25T13:26:59.018Z,14.85
2022-09-25T13:29:36.351Z,15.00
2022-09-25T13:32:19.875Z,14.95
2022-09-25T13:34:54.105Z,14.93
2022-09-25T13:37:27.645Z,15.00
2022-09-25T13:40:14.784Z,14.98
2022-09-25T13:42:46.163Z,15.05
2022-09-25T13:45:29.163Z,15.00
2022-09-25T13:47:58.975Z,15.04
2022-09-25T13:50:37.423Z,15.10
2022-09-25T13:53:39.787Z,15.15
2022-09-25T13:56:15.102Z,15.10
2022-09-25T13:59:19.305Z,15.15
2022-09-25T14:02:45.735Z,15.18
2022-09-25T14:05:21.578Z,15.14
2022-09-25T14:08:16.991Z,15.08
2022-09-25T14:10:46.840Z,15.07
2022-09-25T14:13:43.080Z,15.12
2022-09-25T14:16:19.994Z,15.15
2022-09-25T14:18:54.166Z,15.27
2022-09-25T14:21:22.959Z,15.22
2022-09-25T14:23:55.641Z,15.04
2022-09-25T14:26:26.497Z,15.05
2022-09-25T14:28:58.141Z,15.15
2022-09-25T14:31:32.499Z,15.16
2022-09-25T14:34:23.794Z,15.21
2022-09-25T14:37:29.448Z,15.16
2022-09-25T14:40:11.614Z,15.10
2022-09-25T14:43:29.708Z,15.12
2022-09-25T14:46:05.377Z,15.15
2022-09-25T14:51:43.543Z,15.07
2022-09-25T14:54:22.776Z,15.14
2022-09-25T14:56:55.561Z,15.11
2022-09-25T15:02:36.888Z,15.16
2022-09-25T15:05:33.089Z,15.15
2022-09-25T15:08:18.986Z,15.22
2022-09-25T15:10:46.143Z,15.18
2022-09-25T15:13:19.861Z,15.15
2022-09-25T15:16:16.191Z,15.12
2022-09-25T15:18:54.156Z,15.15
2022-09-25T15:21:30.880Z,15.16
2022-09-25T15:24:28.230Z,15.15
2022-09-25T15:27:06.728Z,15.14
2022-09-25T15:29:37.291Z,15.22
2022-09-25T15:32:39.973Z,15.29
2022-09-25T15:35:18.368Z,15.19
2022-09-25T15:37:47.164Z,15.14
2022-09-25T15:40:16.941Z,15.22
2022-09-25T15:42:48.552Z,15.21
2022-09-25T15:45:42.121Z,15.23
2022-09-25T15:48:20.749Z,15.19
2022-09-25T15:50:48.933Z,15.16
2022-09-25T15:53:29.237Z,15.12
2022-09-25T15:56:30.900Z,15.11
2022-09-25T15:59:02.598Z,15.14
2022-09-25T16:01:53.718Z,15.12
2022-09-25T16:04:49.660Z,15.04
2022-09-25T16:07:42.430Z,15.00
2022-09-25T16:10:10.388Z,15.01
2022-09-25T16:12:50.113Z,14.98
2022-09-25T16:15:27.349Z,14.90
2022-09-25T16:18:00.163Z,14.93
2022-09-25T16:20:36.760Z,14.74
2022-09-25T16:23:17.001Z,14.84
2022-09-25T16:25:45.004Z,14.83
2022-09-25T16:28:30.593Z,14.70
2022-09-25T16:31:02.932Z,14.79
2022-09-25T16:33:33.082Z,14.62
2022-09-25T16:36:16.842Z,14.69
2022-09-25T16:39:10.260Z,14.59
2022-09-25T16:41:43.147Z,14.57
2022-09-25T16:44:51.730Z,14.53
2022-09-25T16:47:21.057Z,14.40
2022-09-25T16:50:12.827Z,14.35
2022-09-25T16:52:43.255Z,14.28
2022-09-25T16:55:28.877Z,14.24
2022-09-25T16:57:58.896Z,14.07
2022-09-25T17:00:29.758Z,14.01
2022-09-25T17:02:58.438Z,13.89
2022-09-25T17:05:30.577Z,13.74
2022-09-25T17:08:06.457Z,13.72
2022-09-25T17:10:39.259Z,13.59
2022-09-25T17:13:06.227Z,13.53
2022-09-25T17:15:41.105Z,13.42
2022-09-25T17:18:16.521Z,13.34
2022-09-25T17:20:44.439Z,13.24
2022-09-25T17:23:19.421Z,13.15
2022-09-25T17:26:07.086Z,13.03
2022-09-25T17:28:34.123Z,13.03
2022-09-25T17:31:11.535Z,12.97
2022-09-25T17:33:40.163Z,12.84
2022-09-25T17:36:11.670Z,12.79
2022-09-25T17:38:40.402Z,12.77
2022-09-25T17:44:24.133Z,12.50
2022-09-25T17:46:55.597Z,12.48
2022-09-25T17:49:23.317Z,12.45
2022-09-25T17:52:20.478Z,12.32
2022-09-25T17:55:23.042Z,12.22
2022-09-25T17:57:50.215Z,12.25
2022-09-25T18:00:44.569Z,12.20
2022-09-25T18:03:14.037Z,12.11
2022-09-25T18:06:11.186Z,12.09
2022-09-25T18:08:38.537Z,11.99
2022-09-25T18:11:12.120Z,11.88
2022-09-25T18:13:41.823Z,11.88
2022-09-25T18:16:25.086Z,11.83
2022-09-25T18:19:10.781Z,11.76
2022-09-25T18:21:56.636Z,11.74
2022-09-25T18:24:30.399Z,11.69
2022-09-25T18:26:58.440Z,11.57
2022-09-25T18:29:26.196Z,11.59
2022-09-25T18:31:54.124Z,11.66
2022-09-25T18:34:22.801Z,11.56
2022-09-25T18:36:50.189Z,11.49
2022-09-25T18:39:20.457Z,11.43
2022-09-25T18:41:48.346Z,11.34
2022-09-25T18:44:23.466Z,11.29
2022-09-25T18:46:51.810Z,11.25
2022-09-25T18:49:20.185Z,11.23
2022-09-25T18:51:53.228Z,11.29
2022-09-25T18:54:46.321Z,11.16
2022-09-25T18:57:14.637Z,11.14
2022-09-25T18:59:42.173Z,11.08
2022-09-25T19:02:31.083Z,11.02
2022-09-25T19:04:58.655Z,11.01
2022-09-25T19:07:28.374Z,10.97
2022-09-25T19:09:58.174Z,10.90
2022-09-25T19:12:26.249Z,10.87
2022-09-25T19:14:59.153Z,10.88
2022-09-25T19:17:26.161Z,10.85
2022-09-25T19:22:46.161Z,10.80
2022-09-25T19:25:20.118Z,10.77
2022-09-25T19:27:54.155Z,10.76
2022-09-25T19:30:22.179Z,10.67
2022-09-25T19:32:50.902Z,10.70
2022-09-25T19:35:18.742Z,10.64
2022-09-25T19:37:46.187Z,10.63
2022-09-25T19:40:32.639Z,10.57
2022-09-25T19:43:01.151Z,10.47
2022-09-25T19:45:29.785Z,10.43
2022-09-25T19:48:03.165Z,10.37
2022-09-25T19:50:30.361Z,10.35
2022-09-25T19:53:04.950Z,10.28
2022-09-25T19:55:37.031Z,10.15
2022-09-25T19:58:36.827Z,10.17
2022-09-25T20:01:16.518Z,10.21
2022-09-25T20:03:49.779Z,10.14
2022-09-25T20:06:42.570Z,10.01
2022-09-25T20:09:11.594Z,10.01
2022-09-25T20:11:38.447Z,9.95
2022-09-25T20:14:07.458Z,9.94
2022-09-25T20:16:34.501Z,9.77
2022-09-25T20:19:07.630Z,9.86
2022-09-25T20:21:38.741Z,9.84
2022-09-25T20:24:07.605Z,9.80
2022-09-25T20:26:36.293Z,9.75
2022-09-25T20:29:13.976Z,9.79
2022-09-25T20:31:45.336Z,9.77
2022-09-25T20:34:20.273Z,9.63
2022-09-25T20:36:53.675Z,9.64
2022-09-25T20:39:22.685Z,9.57
2022-09-25T20:41:50.871Z,9.52
2022-09-25T20:44:18.148Z,9.47
2022-09-25T20:46:50.194Z,9.42
2022-09-25T20:49:20.213Z,9.44
2022-09-25T20:51:48.561Z,9.52
2022-09-25T20:54:16.138Z,9.44
2022-09-25T20:56:45.333Z,9.38
2022-09-25T20:59:12.588Z,9.38
2022-09-25T21:01:44.765Z,9.35
2022-09-25T21:04:18.343Z,9.32
2022-09-25T21:06:50.264Z,9.28
2022-09-25T21:09:25.376Z,9.19
2022-09-25T21:11:58.306Z,9.18
2022-09-25T21:14:28.283Z,9.10
2022-09-25T21:16:57.438Z,9.12
2022-09-25T21:19:27.918Z,9.12
2022-09-25T21:22:01.189Z,9.08
2022-09-25T21:24:28.537Z,9.05
2022-09-25T21:26:56.445Z,9.04
2022-09-25T21:29:24.117Z,9.01
2022-09-25T21:31:54.702Z,8.97
2022-09-25T21:34:28.191Z,9.03
2022-09-25T21:36:56.212Z,8.93
2022-09-25T21:39:29.031Z,8.90
2022-09-25T21:41:56.149Z,8.86
2022-09-25T21:44:25.786Z,8.83
2022-09-25T21:46:54.336Z,8.74
2022-09-25T21:49:26.616Z,8.73
2022-09-25T21:51:54.379Z,8.77
2022-09-25T21:54:22.518Z,8.83
2022-09-25T21:56:50.182Z,8.71
2022-09-25T21:59:18.246Z,8.76
2022-09-25T22:04:42.427Z,8.70
2022-09-25T22:07:14.150Z,8.78
2022-09-25T22:09:42.401Z,8.77
2022-09-25T22:12:10.412Z,8.77
2022-09-25T22:14:42.193Z,8.73
2022-09-25T22:17:10.233Z,8.70
2022-09-25T22:19:43.319Z,8.71
2022-09-25T22:22:10.157Z,8.57
2022-09-25T22:24:38.196Z,8.60
2022-09-25T22:27:11.224Z,8.54
2022-09-25T22:29:38.150Z,8.54
2022-09-25T22:32:06.136Z,8.52
2022-09-25T22:34:34.156Z,8.46
2022-09-25T22:37:06.209Z,8.48
2022-09-25T22:39:34.119Z,8.45
2022-09-25T22:42:02.235Z,8.46
2022-09-25T22:44:30.248Z,8.48
2022-09-25T22:47:02.406Z,8.43
2022-09-25T22:49:32.131Z,8.48
2022-09-25T22:52:00.261Z,8.50
2022-09-25T22:54:28.184Z,8.46
2022-09-25T22:57:25.171Z,8.52
2022-09-25T22:59:52.224Z,8.40
2022-09-25T23:02:20.439Z,8.43
2022-09-25T23:04:49.472Z,8.46
2022-09-25T23:07:16.134Z,8.50
2022-09-25T23:09:44.188Z,8.57
2022-09-25T23:12:12.111Z,8.59
2022-09-25T23:17:32.183Z,8.60
2022-09-25T23:20:00.262Z,8.71
2022-09-25T23:22:32.218Z,8.66
2022-09-25T23:25:00.164Z,8.59
2022-09-25T23:27:33.237Z,8.67
2022-09-25T23:30:00.167Z,8.70
2022-09-25T23:32:28.125Z,8.76
2022-09-25T23:34:56.161Z,8.73
2022-09-25T23:37:24.310Z,8.74
2022-09-25T23:39:56.176Z,8.78
2022-09-25T23:42:24.140Z,8.77
2022-09-25T23:45:21.153Z,8.86
2022-09-25T23:47:48.153Z,8.87
2022-09-25T23:50:16.244Z,8.83
2022-09-25T23:52:44.136Z,8.80
2022-09-25T23:55:12.163Z,8.87
2022-09-25T23:57:40.174Z,8.78
